Time;durP1;ratioP1;P1;durP2;ratioP2;P2;SDS_P1;SDS_P2;PMS_P1;PMS_P2;Temp;Humidity;BMP_temperature;BMP_pressure;BME280_temperature;BME280_humidity;BME280_pressure;Samples;Min_cycle;Max_cycle;Signal;HPM_P1;HPM_P2
2023/03/18 00:00:18;;;;;;;2.08;1.33;;;18.90;52.70;;;;;;6215378;23;20027;-72
2023/03/18 00:02:44;;;;;;;2.53;1.30;;;18.90;52.60;;;;;;6224658;23;20008;-72
2023/03/18 00:05:11;;;;;;;1.65;1.17;;;18.80;52.60;;;;;;6224853;23;19993;-71
2023/03/18 00:07:38;;;;;;;1.50;1.40;;;18.80;52.60;;;;;;6215233;23;20001;-72
2023/03/18 00:10:05;;;;;;;1.58;1.10;;;18.80;52.60;;;;;;6225034;23;19993;-72
2023/03/18 00:12:32;;;;;;;3.25;1.60;;;18.80;52.60;;;;;;6224880;23;20001;-72
2023/03/18 00:14:58;;;;;;;1.60;1.35;;;18.80;52.60;;;;;;6225042;23;20006;-72
2023/03/18 00:17:24;;;;;;;4.43;1.48;;;18.80;52.60;;;;;;6224962;23;20028;-72
2023/03/18 00:19:50;;;;;;;1.23;1.13;;;18.80;52.60;;;;;;6224984;23;20480;-72
2023/03/18 00:22:16;;;;;;;1.25;1.17;;;18.80;52.70;;;;;;6224700;23;20043;-71
2023/03/18 00:24:41;;;;;;;1.30;1.08;;;18.80;52.60;;;;;;6224789;23;20074;-72
2023/03/18 00:27:08;;;;;;;1.92;1.15;;;18.80;52.60;;;;;;6224858;23;19997;-71
2023/03/18 00:29:34;;;;;;;1.52;1.10;;;18.80;52.50;;;;;;6214564;23;19997;-71
2023/03/18 00:32:00;;;;;;;1.42;1.05;;;18.80;52.50;;;;;;6224770;23;19997;-72
2023/03/18 00:34:26;;;;;;;2.08;0.90;;;18.70;52.50;;;;;;6224541;23;20072;-72
2023/03/18 00:36:55;;;;;;;1.27;1.05;;;18.70;52.50;;;;;;6215197;23;20005;-72
2023/03/18 00:39:25;;;;;;;1.60;1.42;;;18.70;52.50;;;;;;6215021;23;20003;-77
2023/03/18 00:41:54;;;;;;;1.67;1.17;;;18.70;52.50;;;;;;6215058;23;20016;-77
2023/03/18 00:44:20;;;;;;;1.58;1.10;;;18.70;52.50;;;;;;6214638;23;19992;-77
2023/03/18 00:46:46;;;;;;;2.83;1.30;;;18.70;52.50;;;;;;6214893;23;20131;-77
2023/03/18 00:49:12;;;;;;;1.30;1.20;;;18.70;52.60;;;;;;6215084;23;19997;-77
2023/03/18 00:51:40;;;;;;;0.75;0.75;;;18.70;52.60;;;;;;6214523;23;20072;-78
2023/03/18 00:54:11;;;;;;;1.17;1.08;;;18.70;53.20;;;;;;6214933;23;19993;-77
2023/03/18 00:56:37;;;;;;;2.03;1.30;;;18.70;52.50;;;;;;6214597;23;19993;-78
2023/03/18 00:59:04;;;;;;;1.80;1.40;;;18.70;52.60;;;;;;6224534;23;19997;-77
2023/03/18 01:01:31;;;;;;;1.17;1.08;;;18.70;52.60;;;;;;6212644;23;20444;-77
2023/03/18 01:03:56;;;;;;;2.20;1.45;;;18.70;53.20;;;;;;6194513;23;20013;-77
2023/03/18 01:06:28;;;;;;;1.85;1.13;;;18.60;52.50;;;;;;6194408;23;20003;-78
2023/03/18 01:08:55;;;;;;;1.40;1.27;;;18.60;52.50;;;;;;6184777;23;20055;-77
2023/03/18 01:11:22;;;;;;;1.83;1.38;;;18.60;52.50;;;;;;6184372;23;20004;-77
2023/03/18 01:13:49;;;;;;;1.20;0.93;;;18.60;52.50;;;;;;6184390;23;20004;-77
2023/03/18 01:16:16;;;;;;;1.20;1.08;;;18.60;52.50;;;;;;6184732;23;20005;-77
2023/03/18 01:18:43;;;;;;;0.93;0.80;;;18.60;52.50;;;;;;6184198;23;20460;-77
2023/03/18 01:21:10;;;;;;;1.10;0.95;;;18.60;52.50;;;;;;6184786;23;20409;-77
2023/03/18 01:23:37;;;;;;;1.13;0.90;;;18.60;52.50;;;;;;6184565;23;20005;-77
2023/03/18 01:26:04;;;;;;;1.67;1.15;;;18.60;52.50;;;;;;6184319;23;19997;-77
2023/03/18 01:28:30;;;;;;;2.63;1.10;;;18.60;52.50;;;;;;6184502;23;20010;-77
2023/03/18 01:30:56;;;;;;;1.45;1.35;;;18.60;52.50;;;;;;6184667;23;20072;-77
2023/03/18 01:33:24;;;;;;;0.95;0.88;;;18.60;52.50;;;;;;6184673;23;20023;-77
2023/03/18 01:35:58;;;;;;;1.33;0.95;;;18.60;52.50;;;;;;6194311;23;20001;-77
2023/03/18 01:38:26;;;;;;;1.75;1.23;;;18.60;52.50;;;;;;6194308;23;20076;-77
2023/03/18 01:40:53;;;;;;;1.50;1.23;;;18.50;52.60;;;;;;6194295;23;20087;-77
2023/03/18 01:43:29;;;;;;;1.08;0.98;;;18.50;52.60;;;;;;6184061;23;20084;-78
2023/03/18 01:45:58;;;;;;;1.40;1.15;;;18.50;52.60;;;;;;6184593;23;20337;-77
2023/03/18 01:48:27;;;;;;;1.20;0.98;;;18.50;52.60;;;;;;6184545;23;20076;-77
2023/03/18 01:50:59;;;;;;;1.33;1.05;;;18.50;52.70;;;;;;6184631;23;20357;-77
2023/03/18 01:53:30;;;;;;;1.70;1.10;;;18.50;52.70;;;;;;6184205;23;20444;-77
2023/03/18 01:55:56;;;;;;;1.45;1.05;;;18.50;52.70;;;;;;6184183;23;20594;-77
2023/03/18 01:58:36;;;;;;;1.60;1.08;;;18.50;52.80;;;;;;6184414;23;19993;-77
2023/03/18 02:01:24;;;;;;;1.40;1.07;;;18.50;60.50;;;;;;6184308;23;20001;-78
2023/03/18 02:03:52;;;;;;;1.25;1.00;;;18.40;52.80;;;;;;6212768;23;20264;-77
2023/03/18 02:06:18;;;;;;;1.02;0.98;;;18.50;52.90;;;;;;6224190;23;20072;-77
2023/03/18 02:08:44;;;;;;;1.88;1.33;;;18.50;52.80;;;;;;6214045;23;19997;-77
2023/03/18 02:11:12;;;;;;;1.30;0.98;;;18.50;52.80;;;;;;6214574;23;20231;-77
2023/03/18 02:13:41;;;;;;;1.50;1.02;;;18.50;52.80;;;;;;6215931;23;20003;-77
2023/03/18 02:16:30;;;;;;;1.77;1.00;;;18.50;52.80;;;;;;6216357;23;20000;-77
2023/03/18 02:19:06;;;;;;;2.42;1.85;;;18.50;52.80;;;;;;6216255;23;20392;-77
2023/03/18 02:21:49;;;;;;;1.90;1.20;;;18.40;52.70;;;;;;6216185;23;20066;-77
2023/03/18 02:24:27;;;;;;;1.35;1.10;;;18.40;52.70;;;;;;6216020;23;20066;-77
2023/03/18 02:26:59;;;;;;;1.15;1.02;;;18.50;52.80;;;;;;6215964;23;20000;-78
2023/03/18 02:29:30;;;;;;;2.90;0.90;;;18.50;52.80;;;;;;6215911;23;20107;-77
2023/03/18 02:31:57;;;;;;;1.98;0.90;;;18.40;52.80;;;;;;6216380;23;20000;-77
2023/03/18 02:34:24;;;;;;;2.20;1.25;;;18.40;53.40;;;;;;6215815;23;19996;-77
2023/03/18 02:36:51;;;;;;;1.20;1.00;;;18.40;52.70;;;;;;6216109;23;20032;-77
2023/03/18 02:39:17;;;;;;;1.50;0.90;;;18.40;52.80;;;;;;6215736;23;19999;-78
2023/03/18 02:41:43;;;;;;;3.45;1.35;;;18.40;52.80;;;;;;6215914;23;20068;-77
2023/03/18 02:44:11;;;;;;;1.40;1.25;;;18.40;52.80;;;;;;6216178;23;20003;-77
2023/03/18 02:46:54;;;;;;;1.58;1.30;;;18.40;52.80;;;;;;6216185;23;20028;-77
2023/03/18 02:49:22;;;;;;;1.77;1.35;;;18.40;52.80;;;;;;6216156;23;20384;-77
2023/03/18 02:51:50;;;;;;;1.63;1.10;;;18.40;52.80;;;;;;6215567;23;19993;-77
2023/03/18 02:54:28;;;;;;;3.03;1.10;;;18.40;52.80;;;;;;6215740;23;20001;-77
2023/03/18 02:56:55;;;;;;;1.40;1.20;;;18.40;52.80;;;;;;6215998;23;20301;-77
2023/03/18 02:59:22;;;;;;;1.25;1.15;;;18.40;52.80;;;;;;6215725;23;20004;-77
2023/03/18 03:01:51;;;;;;;1.73;1.30;;;18.30;52.80;;;;;;6215752;23;20031;-77
2023/03/18 03:04:19;;;;;;;2.75;1.85;;;18.30;52.70;;;;;;6216105;23;20001;-77
2023/03/18 03:06:45;;;;;;;1.92;1.40;;;18.30;52.70;;;;;;6215908;23;20031;-77
2023/03/18 03:09:15;;;;;;;1.98;1.58;;;18.30;53.40;;;;;;6214342;23;20043;-77
2023/03/18 03:11:43;;;;;;;2.70;1.80;;;18.30;52.70;;;;;;6215644;23;20475;-77
2023/03/18 03:14:10;;;;;;;2.97;1.55;;;18.30;52.70;;;;;;6215619;23;20116;-77
2023/03/18 03:16:37;;;;;;;1.70;1.23;;;18.30;52.70;;;;;;6216156;23;20335;-77
2023/03/18 03:19:04;;;;;;;1.80;1.42;;;18.30;52.80;;;;;;6215867;23;20008;-77
2023/03/18 03:21:32;;;;;;;1.40;1.20;;;18.30;52.70;;;;;;6215594;23;20011;-78
2023/03/18 03:23:58;;;;;;;1.83;1.23;;;18.30;52.80;;;;;;6215673;23;20023;-77
2023/03/18 03:26:25;;;;;;;2.90;1.25;;;18.30;52.80;;;;;;6215877;23;20000;-77
2023/03/18 03:28:51;;;;;;;2.47;1.38;;;18.30;52.80;;;;;;6215481;23;19997;-77
2023/03/18 03:31:17;;;;;;;1.52;1.33;;;18.30;52.80;;;;;;6215856;23;19996;-77
2023/03/18 03:33:43;;;;;;;1.98;1.30;;;18.30;52.80;;;;;;6215538;23;19992;-77
2023/03/18 03:36:16;;;;;;;1.75;1.60;;;18.30;52.80;;;;;;6215692;23;20007;-77
2023/03/18 03:38:42;;;;;;;2.97;1.80;;;18.30;52.90;;;;;;6215945;23;20332;-77
2023/03/18 03:41:10;;;;;;;2.78;1.65;;;18.20;52.90;;;;;;6225740;23;20093;-77
2023/03/18 03:43:40;;;;;;;2.88;1.80;;;18.20;52.80;;;;;;6225527;23;20080;-77
2023/03/18 03:46:08;;;;;;;2.97;1.40;;;18.20;52.90;;;;;;6225359;23;19993;-77
2023/03/18 03:48:34;;;;;;;2.33;1.38;;;18.20;52.90;;;;;;6225391;23;20036;-77
2023/03/18 03:51:00;;;;;;;4.78;1.38;;;18.20;53.50;;;;;;6225585;23;19996;-77
2023/03/18 03:53:26;;;;;;;2.60;1.50;;;18.20;52.90;;;;;;6225278;23;19993;-78
2023/03/18 03:55:52;;;;;;;1.75;1.45;;;18.20;53.00;;;;;;6225335;23;20010;-78
2023/03/18 03:58:17;;;;;;;2.22;1.20;;;18.20;52.90;;;;;;6225182;23;19993;-78
2023/03/18 04:00:43;;;;;;;1.30;1.05;;;18.20;52.80;;;;;;6225307;23;20046;-78
2023/03/18 04:03:09;;;;;;;2.22;1.08;;;18.20;52.90;;;;;;6224901;23;20050;-77
2023/03/18 04:05:36;;;;;;;2.22;1.50;;;18.70;53.20;;;;;;6225197;23;19993;-77
2023/03/18 04:08:02;;;;;;;3.13;1.42;;;18.20;53.00;;;;;;6225299;23;20005;-77
2023/03/18 04:10:29;;;;;;;2.00;1.30;;;18.20;53.00;;;;;;6215059;23;20000;-77
2023/03/18 04:12:55;;;;;;;1.88;1.00;;;18.20;52.90;;;;;;6215369;23;20067;-78
2023/03/18 04:15:21;;;;;;;3.30;1.45;;;18.00;52.80;;;;;;6215343;23;20000;-77
2023/03/18 04:17:48;;;;;;;2.00;1.35;;;18.20;52.90;;;;;;6215188;23;19996;-78
2023/03/18 04:20:16;;;;;;;1.70;1.20;;;18.20;53.00;;;;;;6215318;23;19997;-78
2023/03/18 04:22:42;;;;;;;2.70;1.25;;;18.10;52.90;;;;;;6215221;23;20009;-77
2023/03/18 04:25:10;;;;;;;1.98;1.27;;;18.10;52.90;;;;;;6215370;23;20077;-78
2023/03/18 04:27:37;;;;;;;1.70;1.27;;;18.10;53.00;;;;;;6213917;23;19997;-78
2023/03/18 04:30:06;;;;;;;1.17;1.08;;;18.10;53.00;;;;;;6214878;23;20003;-78
2023/03/18 04:32:32;;;;;;;2.10;1.30;;;18.10;53.00;;;;;;6215302;23;20031;-78
2023/03/18 04:34:57;;;;;;;1.38;1.20;;;18.10;53.00;;;;;;6224572;23;19997;-78
2023/03/18 04:37:23;;;;;;;1.67;1.35;;;18.10;53.00;;;;;;6224948;23;20123;-77
2023/03/18 04:39:49;;;;;;;2.63;1.38;;;18.10;53.00;;;;;;6224780;23;20431;-78
2023/03/18 04:42:16;;;;;;;1.65;1.30;;;18.10;53.00;;;;;;6224653;23;20013;-78
2023/03/18 04:44:42;;;;;;;1.40;1.15;;;18.10;53.00;;;;;;6224879;23;19993;-77
2023/03/18 04:47:08;;;;;;;2.83;1.20;;;18.00;52.90;;;;;;6224884;23;20475;-78
2023/03/18 04:49:34;;;;;;;2.20;1.27;;;18.00;53.00;;;;;;6223138;23;20029;-78
2023/03/18 04:52:00;;;;;;;3.20;1.20;;;18.10;53.10;;;;;;6224609;23;20031;-78
2023/03/18 04:54:27;;;;;;;1.20;1.10;;;18.00;53.10;;;;;;6224652;23;19996;-78
2023/03/18 04:56:53;;;;;;;2.05;1.23;;;18.00;53.20;;;;;;6224592;23;19997;-78
2023/03/18 04:59:18;;;;;;;2.45;1.20;;;18.00;53.20;;;;;;6214841;23;20000;-77
2023/03/18 05:01:44;;;;;;;1.80;1.10;;;18.00;53.10;;;;;;6224235;23;20001;-78
2023/03/18 05:04:10;;;;;;;1.58;1.25;;;18.00;53.10;;;;;;6224759;23;20008;-77
2023/03/18 05:06:36;;;;;;;2.00;1.00;;;18.00;53.20;;;;;;6224586;23;19993;-77
2023/03/18 05:09:04;;;;;;;2.20;1.23;;;18.00;53.10;;;;;;6224579;23;20001;-78
2023/03/18 05:11:30;;;;;;;1.33;0.95;;;17.90;53.20;;;;;;6214789;23;20019;-78
2023/03/18 05:13:56;;;;;;;4.75;1.00;;;18.00;53.20;;;;;;6214437;23;20475;-72
2023/03/18 05:16:23;;;;;;;1.83;1.30;;;17.90;53.00;;;;;;6214265;23;20001;-72
2023/03/18 05:18:50;;;;;;;1.27;0.80;;;17.90;53.10;;;;;;6214467;23;20000;-72
2023/03/18 05:21:16;;;;;;;1.20;1.00;;;17.90;53.00;;;;;;6214762;23;20000;-72
2023/03/18 05:23:43;;;;;;;2.78;1.02;;;17.90;53.10;;;;;;6214585;23;20083;-72
2023/03/18 05:26:10;;;;;;;1.30;0.95;;;17.90;53.10;;;;;;6214750;23;19996;-72
2023/03/18 05:28:36;;;;;;;1.13;0.88;;;17.90;53.20;;;;;;6214332;23;20508;-72
2023/03/18 05:31:02;;;;;;;1.80;1.00;;;17.90;53.20;;;;;;6224518;23;20075;-73
2023/03/18 05:33:28;;;;;;;1.35;1.08;;;17.90;53.20;;;;;;6224547;23;20072;-77
2023/03/18 05:35:54;;;;;;;0.80;0.80;;;17.90;53.10;;;;;;6214941;23;19997;-78
2023/03/18 05:38:20;;;;;;;1.15;0.70;;;17.90;53.10;;;;;;6214564;23;20007;-77
2023/03/18 05:40:47;;;;;;;1.73;0.98;;;17.90;53.10;;;;;;6214252;23;19993;-78
2023/03/18 05:43:13;;;;;;;1.48;0.95;;;17.90;53.10;;;;;;6214567;23;20013;-78
2023/03/18 05:45:39;;;;;;;2.72;1.27;;;17.90;53.20;;;;;;6214856;23;19992;-77
2023/03/18 05:48:05;;;;;;;0.85;0.73;;;17.80;53.80;;;;;;6216713;23;20132;-78
2023/03/18 05:50:35;;;;;;;2.17;0.90;;;17.90;53.30;;;;;;6216675;23;20317;-78
2023/03/18 05:53:01;;;;;;;0.93;0.73;;;17.90;53.90;;;;;;6226474;23;20332;-77
2023/03/18 05:55:28;;;;;;;0.80;0.80;;;17.80;53.10;;;;;;6226278;23;20054;-77
2023/03/18 05:57:55;;;;;;;1.60;0.90;;;17.80;53.20;;;;;;6226319;23;19997;-77
2023/03/18 06:00:21;;;;;;;0.95;0.70;;;17.80;53.20;;;;;;6226235;23;20016;-78
2023/03/18 06:02:47;;;;;;;1.90;0.93;;;17.80;53.20;;;;;;6215819;23;20015;-78
2023/03/18 06:05:14;;;;;;;0.70;0.70;;;17.80;53.20;;;;;;6216347;23;19997;-78
2023/03/18 06:07:40;;;;;;;1.08;0.70;;;17.80;53.20;;;;;;6216479;23;19997;-78
2023/03/18 06:10:07;;;;;;;1.10;0.93;;;17.80;53.30;;;;;;6226059;23;20004;-79
2023/03/18 06:12:33;;;;;;;1.08;0.77;;;17.80;53.20;;;;;;6228671;23;20001;-76
2023/03/18 06:14:59;;;;;;;1.23;0.93;;;17.80;53.20;;;;;;6233145;23;20023;-77
2023/03/18 06:17:24;;;;;;;1.50;0.75;;;17.80;53.30;;;;;;6226063;23;19997;-76
2023/03/18 06:19:50;;;;;;;1.88;0.95;;;17.70;53.30;;;;;;6226019;23;20377;-77
2023/03/18 06:22:16;;;;;;;0.88;0.77;;;17.70;53.20;;;;;;6226023;23;20015;-76
2023/03/18 06:24:42;;;;;;;1.38;1.00;;;17.70;53.20;;;;;;6226120;23;20308;-76
2023/03/18 06:27:08;;;;;;;0.98;0.77;;;17.70;54.00;;;;;;6226211;23;20083;-72
2023/03/18 06:29:35;;;;;;;1.52;1.05;;;17.70;53.30;;;;;;6215925;23;19993;-72
2023/03/18 06:32:01;;;;;;;1.48;0.90;;;17.70;53.40;;;;;;6225938;23;20007;-72
2023/03/18 06:34:27;;;;;;;2.15;0.70;;;17.70;53.30;;;;;;6216167;23;20328;-73
2023/03/18 06:36:52;;;;;;;0.73;0.70;;;17.70;54.00;;;;;;6225836;23;20003;-72
2023/03/18 06:39:19;;;;;;;1.58;1.05;;;17.70;53.30;;;;;;6216022;23;20004;-72
2023/03/18 06:41:45;;;;;;;1.20;1.00;;;17.80;53.30;;;;;;6225584;23;20011;-72
2023/03/18 06:44:12;;;;;;;2.13;1.00;;;17.70;53.90;;;;;;6216176;23;20387;-72
2023/03/18 06:46:38;;;;;;;1.30;1.00;;;17.70;53.30;;;;;;6225805;23;19996;-72
2023/03/18 06:49:04;;;;;;;2.10;0.90;;;17.70;53.40;;;;;;6225751;23;20030;-72
2023/03/18 06:51:31;;;;;;;1.55;0.93;;;17.70;53.30;;;;;;6214135;23;20575;-72
2023/03/18 06:53:57;;;;;;;1.35;0.85;;;17.70;53.40;;;;;;6215983;23;20007;-73
2023/03/18 06:56:24;;;;;;;2.08;0.73;;;17.70;53.40;;;;;;6225790;23;20000;-72
2023/03/18 06:58:50;;;;;;;1.45;0.80;;;17.70;53.40;;;;;;6215257;23;20003;-73
2023/03/18 07:01:16;;;;;;;1.90;0.90;;;17.70;53.40;;;;;;6215542;23;20494;-73
2023/03/18 07:03:42;;;;;;;1.48;0.80;;;17.80;53.60;;;;;;6215422;23;20009;-73
2023/03/18 07:06:09;;;;;;;1.35;0.80;;;17.70;53.50;;;;;;6215785;23;20051;-73
2023/03/18 07:08:35;;;;;;;0.75;0.73;;;17.70;53.50;;;;;;6215860;23;19997;-73
2023/03/18 07:11:02;;;;;;;2.45;0.98;;;17.70;53.50;;;;;;6215354;23;19997;-73
2023/03/18 07:13:28;;;;;;;1.95;0.80;;;17.80;53.60;;;;;;6215838;23;19992;-72
2023/03/18 07:15:55;;;;;;;1.13;1.00;;;17.70;53.50;;;;;;6215680;23;20001;-72
2023/03/18 07:18:22;;;;;;;1.98;0.73;;;17.70;53.50;;;;;;6215281;23;20420;-72
2023/03/18 07:20:48;;;;;;;2.47;1.10;;;17.70;53.50;;;;;;6225533;23;20001;-72
2023/03/18 07:23:14;;;;;;;2.33;0.93;;;17.70;53.40;;;;;;6215472;23;20039;-72
2023/03/18 07:25:41;;;;;;;1.30;0.95;;;17.70;53.50;;;;;;6215508;23;19997;-72
2023/03/18 07:28:08;;;;;;;1.83;0.90;;;17.70;53.70;;;;;;6218400;23;20051;-72
2023/03/18 07:30:34;;;;;;;1.83;1.05;;;17.70;53.80;;;;;;6218443;23;19992;-72
2023/03/18 07:33:00;;;;;;;1.15;0.80;;;17.60;53.90;;;;;;6215471;23;20001;-71
2023/03/18 07:35:27;;;;;;;1.73;1.17;;;17.60;54.50;;;;;;6215460;23;20111;-71
2023/03/18 07:37:53;;;;;;;1.55;0.82;;;17.60;53.90;;;;;;6215414;23;20000;-71
2023/03/18 07:40:19;;;;;;;2.58;1.15;;;17.60;53.90;;;;;;6215515;23;20020;-72
2023/03/18 07:42:45;;;;;;;1.58;1.20;;;17.60;54.00;;;;;;6214985;23;20019;-72
2023/03/18 07:45:11;;;;;;;2.95;0.90;;;17.70;53.90;;;;;;6225089;23;20028;-71
2023/03/18 07:47:37;;;;;;;1.88;1.05;;;17.60;54.00;;;;;;6214893;23;20004;-71
2023/03/18 07:50:04;;;;;;;1.80;1.10;;;17.70;53.90;;;;;;6214776;23;19992;-71
2023/03/18 07:52:30;;;;;;;3.30;1.13;;;17.70;54.00;;;;;;6215309;23;20011;-72
2023/03/18 07:54:56;;;;;;;1.92;1.02;;;17.70;54.10;;;;;;6214961;23;20112;-72
2023/03/18 07:57:22;;;;;;;3.05;1.30;;;17.70;54.10;;;;;;6215161;23;19996;-71
2023/03/18 07:59:49;;;;;;;1.40;1.27;;;17.70;54.30;;;;;;6215350;23;19997;-71
2023/03/18 08:02:15;;;;;;;2.55;1.30;;;17.70;54.30;;;;;;6214475;23;20009;-72
2023/03/18 08:04:42;;;;;;;1.73;1.30;;;17.70;54.30;;;;;;6215211;23;20031;-71
2023/03/18 08:07:09;;;;;;;1.38;0.98;;;17.70;54.30;;;;;;6215133;23;19997;-71
2023/03/18 08:09:36;;;;;;;2.00;1.10;;;17.70;54.20;;;;;;6188460;23;20007;-71
2023/03/18 08:12:01;;;;;;;2.22;1.20;;;17.70;54.20;;;;;;6198406;23;20083;-73
2023/03/18 08:14:27;;;;;;;3.47;1.40;;;17.70;54.30;;;;;;6198216;23;20004;-72
2023/03/18 08:16:53;;;;;;;2.13;1.25;;;17.80;54.50;;;;;;6198441;23;20352;-74
2023/03/18 08:19:18;;;;;;;1.95;1.02;;;17.70;54.50;;;;;;6198174;23;20314;-73
2023/03/18 08:21:44;;;;;;;2.67;1.00;;;17.70;54.50;;;;;;6197975;23;20024;-73
2023/03/18 08:24:10;;;;;;;1.58;0.90;;;17.80;54.50;;;;;;6213540;23;20066;-73
2023/03/18 08:26:37;;;;;;;7.65;1.58;;;17.80;54.50;;;;;;6188429;23;20004;-73
2023/03/18 08:29:03;;;;;;;1.40;1.20;;;17.80;54.50;;;;;;6213613;23;20013;-72
2023/03/18 08:31:29;;;;;;;3.38;1.77;;;17.80;54.60;;;;;;6188687;23;19997;-72
2023/03/18 08:33:57;;;;;;;1.73;1.02;;;17.80;54.50;;;;;;6188789;23;20005;-72
2023/03/18 08:36:23;;;;;;;3.83;1.42;;;17.70;54.60;;;;;;6223402;23;20107;-73
2023/03/18 08:38:49;;;;;;;3.00;1.58;;;17.80;54.80;;;;;;6198522;23;20001;-71
2023/03/18 08:41:15;;;;;;;3.72;1.77;;;17.80;54.80;;;;;;6198172;23;20007;-71
2023/03/18 08:43:42;;;;;;;4.32;2.00;;;17.80;54.80;;;;;;6198154;23;20016;-72
2023/03/18 08:46:07;;;;;;;4.90;2.50;;;17.90;54.90;;;;;;6198132;23;20047;-72
2023/03/18 08:48:34;;;;;;;4.15;2.58;;;17.90;55.00;;;;;;6223122;23;20009;-72
2023/03/18 08:51:03;;;;;;;6.18;2.05;;;17.90;54.90;;;;;;6198293;23;20001;-72
2023/03/18 08:53:29;;;;;;;2.75;2.03;;;17.90;55.00;;;;;;6223228;23;20387;-72
2023/03/18 08:55:55;;;;;;;7.28;3.20;;;17.90;54.90;;;;;;6223156;23;20059;-71
2023/03/18 08:58:20;;;;;;;5.30;3.50;;;18.00;55.00;;;;;;6197971;23;20479;-72
2023/03/18 09:00:46;;;;;;;7.35;3.08;;;18.00;55.10;;;;;;6187948;23;20004;-72
2023/03/18 09:03:12;;;;;;;3.55;2.25;;;18.00;55.10;;;;;;6187840;23;20495;-73
2023/03/18 09:05:39;;;;;;;4.07;2.70;;;18.00;54.60;;;;;;6202994;23;20000;-70
2023/03/18 09:08:05;;;;;;;4.53;2.40;;;18.00;55.20;;;;;;6188109;23;20030;-70
2023/03/18 09:10:32;;;;;;;3.85;2.40;;;18.00;55.00;;;;;;6188393;23;20004;-70
2023/03/18 09:12:59;;;;;;;2.95;2.20;;;18.10;55.30;;;;;;6198365;23;20382;-71
2023/03/18 09:15:26;;;;;;;3.50;1.92;;;18.10;55.30;;;;;;6188682;23;19997;-71
2023/03/18 09:17:52;;;;;;;2.53;1.90;;;18.10;55.30;;;;;;6188070;23;20444;-70
2023/03/18 09:20:18;;;;;;;4.72;1.88;;;18.10;55.20;;;;;;6188156;23;20460;-70
2023/03/18 09:22:44;;;;;;;5.07;1.67;;;18.10;55.20;;;;;;6193021;23;20012;-75
2023/03/18 09:25:11;;;;;;;4.18;1.90;;;18.20;55.40;;;;;;6190455;23;20305;-71
2023/03/18 09:27:36;;;;;;;5.22;1.98;;;18.20;55.30;;;;;;6199928;23;20029;-70
2023/03/18 09:30:04;;;;;;;3.58;1.95;;;18.20;55.40;;;;;;6190378;23;20054;-70
2023/03/18 09:32:30;;;;;;;4.90;2.42;;;18.20;55.50;;;;;;6190247;23;20497;-70
2023/03/18 09:34:56;;;;;;;5.85;2.75;;;18.20;55.60;;;;;;6214980;23;20013;-70
2023/03/18 09:37:22;;;;;;;4.63;1.85;;;18.20;55.70;;;;;;6189932;23;20025;-70
2023/03/18 09:39:50;;;;;;;5.15;1.65;;;18.20;55.70;;;;;;6189867;23;20001;-70
2023/03/18 09:42:25;;;;;;;3.00;1.50;;;18.20;55.60;;;;;;6189816;23;20019;-71
2023/03/18 09:44:57;;;;;;;4.78;2.35;;;18.20;55.60;;;;;;6216350;23;19997;-71
2023/03/18 09:47:35;;;;;;;2.95;2.30;;;18.20;55.80;;;;;;6224494;23;20015;-71
2023/03/18 09:50:26;;;;;;;4.63;2.45;;;18.30;55.90;;;;;;6226415;23;20030;-78
2023/03/18 09:53:15;;;;;;;4.35;2.47;;;18.30;56.30;;;;;;6216702;23;19992;-79
2023/03/18 09:55:59;;;;;;;3.70;2.13;;;18.20;56.40;;;;;;6216690;23;20071;-81
2023/03/18 09:58:50;;;;;;;4.88;2.30;;;18.30;56.60;;;;;;6190953;23;20000;-79
2023/03/18 10:01:19;;;;;;;8.20;2.22;;;18.20;65.10;;;;;;6216227;23;20005;-78
2023/03/18 10:03:56;;;;;;;5.97;2.08;;;18.30;56.30;;;;;;6189817;23;20024;-77
2023/03/18 10:06:23;;;;;;;4.25;2.05;;;18.30;56.40;;;;;;6215129;23;20009;-78
2023/03/18 10:09:07;;;;;;;4.82;2.00;;;18.30;56.30;;;;;;6189810;23;20066;-72
2023/03/18 10:11:43;;;;;;;4.93;2.55;;;18.30;56.50;;;;;;6216396;23;20332;-72
2023/03/18 10:14:15;;;;;;;3.95;2.22;;;18.30;56.50;;;;;;6189949;23;20000;-73
2023/03/18 10:16:52;;;;;;;4.43;2.35;;;18.30;56.50;;;;;;6226152;23;19997;-72
2023/03/18 10:19:18;;;;;;;3.90;2.83;;;18.30;56.70;;;;;;6225764;23;20348;-73
2023/03/18 10:22:39;;;;;;;4.78;2.45;;;18.30;56.60;;;;;;6214117;23;20042;-72
2023/03/18 10:25:34;;;;;;;4.97;2.47;;;18.40;56.80;;;;;;6152783;23;20092;-78
2023/03/18 10:28:35;;;;;;;6.32;2.22;;;18.40;56.60;;;;;;6215954;23;20487;-78
2023/03/18 10:31:15;;;;;;;4.47;2.60;;;18.40;56.80;;;;;;6216251;23;20000;-77
2023/03/18 10:34:05;;;;;;;3.72;2.30;;;18.40;56.70;;;;;;6215358;23;20036;-78
2023/03/18 10:36:45;;;;;;;4.43;2.20;;;18.40;57.30;;;;;;6215703;23;20015;-77
2023/03/18 10:39:19;;;;;;;2.97;2.20;;;18.40;56.80;;;;;;6216345;23;20359;-78
2023/03/18 10:41:51;;;;;;;4.28;2.15;;;18.40;56.60;;;;;;6199653;23;20009;-75
2023/03/18 10:44:20;;;;;;;3.15;2.22;;;18.40;56.80;;;;;;6224560;23;20372;-72
2023/03/18 10:46:50;;;;;;;3.25;1.88;;;18.40;56.70;;;;;;6225603;23;20001;-73
2023/03/18 10:49:25;;;;;;;4.87;1.97;;;18.40;56.70;;;;;;6199420;23;20015;-72
2023/03/18 10:52:05;;;;;;;4.72;1.80;;;18.40;56.60;;;;;;6224205;23;20013;-72
2023/03/18 10:54:41;;;;;;;3.47;1.83;;;18.50;56.60;;;;;;6224349;23;20007;-73
2023/03/18 10:57:13;;;;;;;5.28;1.65;;;18.40;56.70;;;;;;6226108;23;19997;-73
2023/03/18 10:59:39;;;;;;;2.70;1.67;;;18.40;56.70;;;;;;6189433;23;20337;-73
2023/03/18 11:02:18;;;;;;;3.53;1.50;;;18.50;56.70;;;;;;6225235;23;20023;-72
2023/03/18 11:05:11;;;;;;;3.92;1.65;;;18.50;56.80;;;;;;6224304;23;20570;-72
2023/03/18 11:08:02;;;;;;;3.25;1.85;;;18.50;56.80;;;;;;6215363;23;20080;-73
2023/03/18 11:10:33;;;;;;;3.70;2.10;;;18.50;56.80;;;;;;6215506;23;20094;-72
2023/03/18 11:13:05;;;;;;;2.33;1.50;;;18.40;56.60;;;;;;6215898;23;20016;-73
2023/03/18 11:15:42;;;;;;;3.17;2.10;;;18.40;56.60;;;;;;6225626;23;19996;-76
2023/03/18 11:18:15;;;;;;;2.78;1.80;;;18.50;56.70;;;;;;6225453;23;20325;-71
2023/03/18 11:20:44;;;;;;;3.55;1.73;;;18.40;56.50;;;;;;6225501;23;19996;-73
2023/03/18 11:23:34;;;;;;;3.25;1.50;;;18.50;56.60;;;;;;6225472;23;20096;-72
2023/03/18 11:26:01;;;;;;;2.65;1.30;;;18.50;56.60;;;;;;6215775;23;20000;-73
2023/03/18 11:28:28;;;;;;;2.78;1.67;;;18.50;56.50;;;;;;6225487;23;19996;-72
2023/03/18 11:30:56;;;;;;;2.08;1.55;;;18.50;56.50;;;;;;6225410;23;19996;-72
2023/03/18 11:33:25;;;;;;;3.00;1.52;;;18.50;56.50;;;;;;6215564;23;20372;-73
2023/03/18 11:35:54;;;;;;;2.33;1.45;;;18.50;56.50;;;;;;6215583;23;20108;-72
2023/03/18 11:38:42;;;;;;;2.50;1.55;;;18.50;56.50;;;;;;6215324;23;20055;-72
2023/03/18 11:41:22;;;;;;;2.70;1.60;;;18.50;56.60;;;;;;6225272;23;20059;-77
2023/03/18 11:44:00;;;;;;;3.55;1.98;;;18.50;56.60;;;;;;6215391;23;20009;-76
2023/03/18 11:46:35;;;;;;;2.10;1.40;;;18.50;56.60;;;;;;6215571;23;20074;-77
2023/03/18 11:49:01;;;;;;;2.00;1.52;;;18.50;56.50;;;;;;6215480;23;20004;-76
2023/03/18 11:51:55;;;;;;;2.05;1.25;;;18.50;56.50;;;;;;6215259;23;20328;-76
2023/03/18 11:54:32;;;;;;;2.10;1.13;;;18.50;56.60;;;;;;6215404;23;20435;-76
2023/03/18 11:57:09;;;;;;;2.80;1.40;;;18.50;56.50;;;;;;6225325;23;19997;-77
2023/03/18 11:59:55;;;;;;;6.78;1.40;;;18.50;56.50;;;;;;6225251;23;20000;-76
2023/03/18 12:02:46;;;;;;;2.22;1.50;;;18.50;56.60;;;;;;6224663;23;20008;-76
2023/03/18 12:05:34;;;;;;;3.35;1.48;;;18.50;56.60;;;;;;6214865;23;20001;-77
2023/03/18 12:08:16;;;;;;;1.88;1.25;;;18.50;56.50;;;;;;6225156;23;20071;-76
2023/03/18 12:10:47;;;;;;;1.95;1.42;;;18.50;56.50;;;;;;6215470;23;20076;-76
2023/03/18 12:13:32;;;;;;;2.38;1.33;;;18.60;56.50;;;;;;6224930;23;20424;-76
2023/03/18 12:16:07;;;;;;;2.35;1.38;;;18.60;56.50;;;;;;6225086;23;20028;-80
2023/03/18 12:18:51;;;;;;;3.38;1.90;;;18.60;56.30;;;;;;6225098;23;20076;-77
2023/03/18 12:21:32;;;;;;;4.85;1.42;;;18.60;56.40;;;;;;6215164;23;20378;-78
2023/03/18 12:24:25;;;;;;;2.58;1.58;;;18.60;56.30;;;;;;6224878;23;20053;-78
2023/03/18 12:26:58;;;;;;;5.75;1.75;;;18.60;56.40;;;;;;6224889;23;19996;-78
2023/03/18 12:30:01;;;;;;;4.47;1.90;;;18.60;56.40;;;;;;6215177;23;20001;-77
2023/03/18 12:32:39;;;;;;;3.78;1.35;;;18.60;56.40;;;;;;6224825;23;20071;-77
2023/03/18 12:35:08;;;;;;;2.30;1.23;;;18.60;56.40;;;;;;6224996;23;20004;-79
2023/03/18 12:38:02;;;;;;;5.55;1.50;;;18.60;56.40;;;;;;6224915;23;19992;-77
2023/03/18 12:40:56;;;;;;;2.60;1.30;;;18.60;56.50;;;;;;6214984;23;20074;-79
2023/03/18 12:43:45;;;;;;;1.98;1.10;;;18.60;56.50;;;;;;6224549;23;20012;-77
2023/03/18 12:46:35;;;;;;;2.75;1.33;;;18.60;56.50;;;;;;6224754;23;20377;-77
2023/03/18 12:49:08;;;;;;;1.63;1.03;;;18.60;56.50;;;;;;6224936;23;20318;-78
2023/03/18 12:51:49;;;;;;;1.83;1.08;;;18.60;56.50;;;;;;6224901;23;20243;-76
2023/03/18 12:54:25;;;;;;;2.17;1.38;;;18.60;56.50;;;;;;6224847;23;20004;-77
2023/03/18 12:56:58;;;;;;;3.05;1.13;;;18.60;56.50;;;;;;6224463;23;20023;-76
2023/03/18 12:59:37;;;;;;;2.10;0.90;;;18.60;56.50;;;;;;6224628;23;20001;-77
2023/03/18 13:02:36;;;;;;;2.08;1.10;;;18.60;56.50;;;;;;6222834;23;20012;-77